Time;durP1;ratioP1;P1;durP2;ratioP2;P2;SDS_P1;SDS_P2;PMS_P1;PMS_P2;Temp;Humidity;BMP_temperature;BMP_pressure;BME280_temperature;BME280_humidity;BME280_pressure;Samples;Min_cycle;Max_cycle;Signal;HPM_P1;HPM_P2
2022/05/01 00:00:15;;;;;;;13.23;7.45;;;4.80;99.90;;;;;;5069897;28;20080;-73
2022/05/01 00:02:40;;;;;;;15.23;8.90;;;4.20;99.90;;;;;;5069613;28;20115;-74
2022/05/01 00:05:07;;;;;;;15.55;8.05;;;4.20;99.90;;;;;;5070133;28;20424;-75
2022/05/01 00:07:33;;;;;;;10.82;7.70;;;4.20;99.90;;;;;;5069354;28;20048;-73
2022/05/01 00:09:59;;;;;;;12.35;7.60;;;4.20;99.90;;;;;;5069737;28;20491;-75
2022/05/01 00:12:24;;;;;;;16.48;9.77;;;4.10;99.90;;;;;;5070116;28;20048;-71
2022/05/01 00:14:50;;;;;;;14.52;9.00;;;4.10;99.90;;;;;;5070309;28;20045;-74
2022/05/01 00:17:15;;;;;;;13.48;8.35;;;4.00;99.90;;;;;;5070161;28;20105;-72
2022/05/01 00:19:41;;;;;;;10.95;8.25;;;4.00;99.90;;;;;;5069916;28;20088;-74
2022/05/01 00:22:07;;;;;;;11.70;8.75;;;3.90;99.90;;;;;;5070079;28;20055;-73
2022/05/01 00:24:32;;;;;;;12.65;8.98;;;3.80;99.90;;;;;;5070052;28;20120;-74
2022/05/01 00:27:00;;;;;;;15.77;9.95;;;3.80;99.90;;;;;;5068418;28;20480;-75
2022/05/01 00:29:26;;;;;;;15.57;9.27;;;3.70;99.90;;;;;;5068902;28;20105;-73
2022/05/01 00:31:52;;;;;;;11.20;7.68;;;3.70;99.90;;;;;;5070005;28;20044;-72
2022/05/01 00:37:02;;;;;;;11.88;8.40;;;3.60;99.90;;;;;;5069985;28;20415;-73
2022/05/01 00:39:28;;;;;;;12.35;8.70;;;3.50;99.90;;;;;;5069527;28;20044;-74
2022/05/01 00:41:53;;;;;;;13.15;8.80;;;3.50;99.90;;;;;;5068521;28;20544;-74
2022/05/01 00:44:21;;;;;;;11.95;9.23;;;3.40;99.90;;;;;;5069693;28;20052;-74
2022/05/01 00:46:50;;;;;;;13.43;9.35;;;3.40;99.90;;;;;;5069476;28;20052;-70
2022/05/01 00:49:25;;;;;;;13.52;9.55;;;3.50;99.90;;;;;;5068260;28;20060;-71
2022/05/01 00:51:58;;;;;;;11.55;7.80;;;3.40;99.90;;;;;;5069576;28;20048;-70
2022/05/01 00:54:26;;;;;;;13.95;8.23;;;3.30;99.90;;;;;;5069355;28;20078;-71
2022/05/01 00:56:55;;;;;;;9.27;6.65;;;3.20;99.90;;;;;;5069914;28;20105;-73
2022/05/01 00:59:21;;;;;;;12.57;9.13;;;3.10;99.90;;;;;;5069730;28;20059;-72
2022/05/01 01:01:48;;;;;;;14.32;8.77;;;3.10;99.90;;;;;;5069660;28;20149;-70
2022/05/01 01:04:14;;;;;;;13.25;8.02;;;3.00;99.90;;;;;;5067969;28;20048;-71
2022/05/01 01:06:42;;;;;;;33.30;8.73;;;2.90;99.90;;;;;;5069432;28;20049;-69
2022/05/01 01:09:09;;;;;;;11.60;7.22;;;2.90;99.90;;;;;;5051527;28;20505;-70
2022/05/01 01:11:36;;;;;;;10.30;7.28;;;2.90;99.90;;;;;;5069276;28;20096;-72
2022/05/01 01:14:05;;;;;;;9.15;6.10;;;2.80;99.90;;;;;;5071432;28;20052;-70
2022/05/01 01:16:38;;;;;;;9.35;6.60;;;2.80;99.90;;;;;;5073093;28;20062;-71
2022/05/01 01:19:05;;;;;;;10.57;7.03;;;2.80;99.90;;;;;;5073247;28;20052;-70
2022/05/01 01:21:31;;;;;;;12.57;7.18;;;2.80;99.90;;;;;;5072940;28;20076;-70
2022/05/01 01:23:57;;;;;;;8.68;6.43;;;2.80;99.90;;;;;;5072849;28;20474;-70
2022/05/01 01:26:23;;;;;;;12.38;6.90;;;2.80;99.90;;;;;;5073214;28;20418;-70
2022/05/01 01:28:50;;;;;;;9.13;6.72;;;2.70;99.90;;;;;;5071864;28;20048;-70
2022/05/01 01:34:05;;;;;;;8.23;6.20;;;2.70;99.90;;;;;;5072593;28;20048;-70
2022/05/01 01:36:32;;;;;;;8.98;6.63;;;2.60;99.90;;;;;;5054774;28;20127;-71
2022/05/01 01:38:59;;;;;;;10.45;7.18;;;2.60;99.90;;;;;;5072956;28;20219;-69
2022/05/01 01:41:30;;;;;;;13.52;7.95;;;2.60;99.90;;;;;;5072486;28;20610;-70
2022/05/01 01:43:57;;;;;;;12.00;7.68;;;2.60;99.90;;;;;;5072750;28;20056;-70
2022/05/01 01:46:23;;;;;;;13.65;8.65;;;2.60;99.90;;;;;;5072717;28;20076;-69
2022/05/01 01:48:50;;;;;;;13.35;8.63;;;2.60;99.90;;;;;;5071021;28;20090;-72
2022/05/01 01:51:17;;;;;;;12.82;8.45;;;2.50;99.90;;;;;;5072515;28;20407;-72
2022/05/01 01:53:43;;;;;;;11.90;8.13;;;2.70;99.90;;;;;;5072973;28;20404;-69
2022/05/01 01:56:09;;;;;;;13.52;8.80;;;2.50;99.90;;;;;;5072930;28;20491;-69
2022/05/01 01:58:36;;;;;;;15.18;9.10;;;2.40;99.90;;;;;;5072763;28;20059;-69
2022/05/01 02:01:04;;;;;;;18.35;11.43;;;2.40;99.90;;;;;;5071392;28;20103;-70
2022/05/01 02:03:30;;;;;;;20.60;8.55;;;2.30;99.90;;;;;;5051943;28;20060;-69
2022/05/01 02:05:55;;;;;;;14.02;8.82;;;2.30;99.90;;;;;;5070999;28;20102;-70
2022/05/01 02:08:21;;;;;;;9.95;6.50;;;2.30;99.90;;;;;;5072257;28;20039;-68
2022/05/01 02:10:47;;;;;;;11.90;7.75;;;2.20;99.90;;;;;;5068766;28;20080;-70
2022/05/01 02:13:14;;;;;;;15.63;10.35;;;2.20;99.90;;;;;;5072638;28;20087;-69
2022/05/01 02:15:40;;;;;;;14.45;9.95;;;2.20;99.90;;;;;;5063976;28;20052;-67
2022/05/01 02:18:06;;;;;;;13.23;9.63;;;2.10;99.90;;;;;;5068319;28;20531;-70
2022/05/01 02:23:18;;;;;;;;;;;2.10;99.90;;;;;;5071454;28;20044;-70
2022/05/01 02:25:44;;;;;;;13.07;8.88;;;2.10;99.90;;;;;;5071039;28;20287;-70
2022/05/01 02:28:10;;;;;;;12.73;8.75;;;2.10;99.90;;;;;;5070257;28;20056;-69
2022/05/01 02:30:39;;;;;;;13.23;8.85;;;2.00;99.90;;;;;;5072387;28;20040;-70
2022/05/01 02:33:06;;;;;;;14.10;8.85;;;2.00;99.90;;;;;;5071318;28;20044;-69
2022/05/01 02:35:32;;;;;;;15.85;9.52;;;1.90;99.90;;;;;;5072125;28;20044;-70
2022/05/01 02:37:59;;;;;;;13.98;9.00;;;1.90;99.90;;;;;;5071923;28;20150;-70
2022/05/01 02:40:25;;;;;;;16.90;8.75;;;1.90;99.90;;;;;;5071967;28;20056;-71
2022/05/01 02:42:51;;;;;;;25.05;12.60;;;2.80;99.90;;;;;;5071539;28;20059;-71
2022/05/01 02:45:18;;;;;;;27.15;13.73;;;1.90;99.90;;;;;;5070706;28;20048;-70
2022/05/01 02:47:44;;;;;;;38.08;14.13;;;1.80;99.90;;;;;;5069979;28;20245;-70
2022/05/01 02:50:10;;;;;;;67.90;18.58;;;1.70;99.90;;;;;;5072006;28;20037;-69
2022/05/01 02:52:36;;;;;;;27.83;16.20;;;1.70;99.90;;;;;;5070513;28;20082;-70
2022/05/01 02:55:02;;;;;;;25.23;17.75;;;1.70;99.90;;;;;;5056848;28;20037;-68
2022/05/01 02:57:27;;;;;;;23.30;15.27;;;1.70;99.90;;;;;;5051579;28;20037;-71
2022/05/01 02:59:53;;;;;;;22.52;15.73;;;1.70;99.90;;;;;;5059329;28;20051;-71
2022/05/01 03:02:19;;;;;;;21.73;14.57;;;1.70;99.90;;;;;;5066207;28;20491;-70
2022/05/01 03:04:45;;;;;;;24.20;15.55;;;1.70;99.90;;;;;;5068055;28;20056;-69
2022/05/01 03:07:12;;;;;;;58.20;15.80;;;1.60;99.90;;;;;;5070955;28;20131;-69
2022/05/01 03:09:38;;;;;;;71.32;18.05;;;1.60;99.90;;;;;;5070108;28;20045;-70
2022/05/01 03:12:05;;;;;;;26.10;16.60;;;1.50;99.90;;;;;;5071371;28;20062;-70
2022/05/01 03:14:31;;;;;;;22.38;16.25;;;1.60;99.90;;;;;;5067658;28;20522;-70
2022/05/01 03:16:57;;;;;;;19.55;13.07;;;1.70;99.90;;;;;;5067363;28;20052;-71
2022/05/01 03:22:13;;;;;;;18.52;13.75;;;1.70;99.90;;;;;;5051085;28;20130;-70
2022/05/01 03:24:39;;;;;;;18.67;12.77;;;1.80;99.90;;;;;;5060124;28;20048;-70
2022/05/01 03:27:06;;;;;;;22.70;13.23;;;1.80;99.90;;;;;;5071289;28;20049;-71
2022/05/01 03:29:32;;;;;;;22.27;14.00;;;1.70;99.90;;;;;;5070183;28;20051;-70
2022/05/01 03:31:59;;;;;;;20.83;13.18;;;1.70;99.90;;;;;;5070529;28;20048;-71
2022/05/01 03:34:26;;;;;;;17.55;11.10;;;1.70;99.90;;;;;;5070799;28;20128;-70
2022/05/01 03:36:53;;;;;;;15.52;10.52;;;1.60;99.90;;;;;;5069953;28;20036;-69
2022/05/01 03:39:20;;;;;;;17.30;10.00;;;1.70;99.90;;;;;;5069725;28;20040;-69
2022/05/01 03:41:46;;;;;;;15.43;10.98;;;1.60;99.90;;;;;;5070361;28;20044;-70
2022/05/01 03:44:12;;;;;;;17.25;10.95;;;1.50;99.90;;;;;;5067209;28;20048;-69
2022/05/01 03:46:38;;;;;;;20.80;11.32;;;1.50;99.90;;;;;;5064860;28;20056;-70
2022/05/01 03:49:06;;;;;;;15.68;10.80;;;1.30;99.90;;;;;;5069363;28;20169;-70
2022/05/01 03:51:33;;;;;;;26.67;12.60;;;1.40;99.90;;;;;;5070213;28;20041;-69
2022/05/01 03:54:02;;;;;;;16.90;11.73;;;1.30;99.90;;;;;;5070544;28;20041;-70
2022/05/01 03:56:31;;;;;;;15.43;10.70;;;1.30;99.90;;;;;;5052141;28;20047;-70
2022/05/01 03:58:57;;;;;;;16.17;10.90;;;2.10;99.90;;;;;;5070450;28;20048;-69
2022/05/01 04:01:24;;;;;;;15.18;10.80;;;1.20;99.90;;;;;;5070031;28;20044;-70
2022/05/01 04:03:50;;;;;;;15.57;11.10;;;1.10;99.90;;;;;;5068722;28;20086;-70
2022/05/01 04:06:16;;;;;;;15.77;12.00;;;1.10;99.90;;;;;;5069017;28;20052;-69
2022/05/01 04:08:42;;;;;;;15.48;11.13;;;1.10;99.90;;;;;;5069428;28;20083;-69
2022/05/01 04:11:07;;;;;;;21.92;11.07;;;1.10;99.90;;;;;;5067962;28;20036;-71
2022/05/01 04:13:33;;;;;;;15.10;11.00;;;1.10;99.90;;;;;;5060667;28;20090;-72
2022/05/01 04:15:59;;;;;;;15.20;10.45;;;1.10;99.90;;;;;;5055517;28;20071;-70
2022/05/01 04:18:25;;;;;;;15.20;10.60;;;1.10;99.90;;;;;;5052775;28;20369;-69
2022/05/01 04:20:52;;;;;;;13.57;9.80;;;1.20;99.90;;;;;;5068795;28;20046;-69
2022/05/01 04:23:18;;;;;;;13.20;10.02;;;1.10;99.90;;;;;;5067170;28;20530;-69
2022/05/01 04:25:44;;;;;;;16.50;9.60;;;1.10;99.90;;;;;;5058144;28;20443;-69
2022/05/01 04:28:11;;;;;;;12.50;9.50;;;1.10;99.90;;;;;;5062614;28;20048;-70
2022/05/01 04:30:39;;;;;;;16.98;11.55;;;1.10;99.90;;;;;;5067348;28;20484;-70
2022/05/01 04:33:06;;;;;;;17.13;10.63;;;1.00;99.90;;;;;;5065499;28;20051;-69
2022/05/01 04:35:37;;;;;;;16.23;10.80;;;1.10;99.90;;;;;;5058125;28;20071;-69
2022/05/01 04:38:20;;;;;;;15.55;10.43;;;1.10;99.90;;;;;;5060897;28;20051;-70
2022/05/01 04:40:58;;;;;;;19.20;11.98;;;1.00;99.90;;;;;;5068708;28;20048;-69
2022/05/01 04:43:25;;;;;;;17.58;12.20;;;1.00;99.90;;;;;;5067801;28;20063;-70
2022/05/01 04:45:56;;;;;;;19.42;12.65;;;1.00;99.90;;;;;;5064160;28;20037;-68
2022/05/01 04:48:23;;;;;;;17.15;11.77;;;1.00;99.90;;;;;;5064053;28;20400;-70
2022/05/01 04:50:49;;;;;;;20.83;12.35;;;1.00;99.90;;;;;;5068115;28;20388;-69
2022/05/01 04:53:16;;;;;;;16.98;11.25;;;1.10;99.90;;;;;;5072600;28;20044;-70
2022/05/01 04:55:44;;;;;;;19.23;13.32;;;1.10;99.90;;;;;;5069692;28;20068;-69
2022/05/01 04:58:11;;;;;;;25.15;13.25;;;1.10;99.90;;;;;;5062122;28;20075;-69
2022/05/01 05:00:37;;;;;;;37.55;15.10;;;1.20;99.90;;;;;;5072673;28;20147;-69
2022/05/01 05:03:04;;;;;;;19.02;13.65;;;1.50;99.90;;;;;;5066011;28;20041;-70
2022/05/01 05:05:34;;;;;;;19.17;13.23;;;1.30;99.90;;;;;;5070376;28;20094;-70
2022/05/01 05:09:53;;;;;;;18.38;13.02;;;1.30;99.90;;;;;;5071927;28;20048;-70
2022/05/01 05:10:48;;;;;;;20.23;14.38;;;1.40;99.90;;;;;;5060245;28;20059;-71
2022/05/01 05:13:22;;;;;;;20.33;14.25;;;1.80;99.90;;;;;;5071237;28;20092;-71
2022/05/01 05:15:49;;;;;;;21.88;14.60;;;1.60;99.90;;;;;;5041607;28;20171;-71
2022/05/01 05:18:15;;;;;;;18.67;14.82;;;1.60;99.90;;;;;;5071540;28;20087;-72
2022/05/01 05:20:41;;;;;;;18.35;13.38;;;1.70;99.90;;;;;;5070457;28;20068;-74
2022/05/01 05:23:07;;;;;;;19.05;14.13;;;1.80;99.90;;;;;;5071271;28;20041;-75
2022/05/01 05:25:33;;;;;;;18.70;13.77;;;1.90;99.90;;;;;;5065367;28;20436;-74
2022/05/01 05:27:59;;;;;;;17.13;13.40;;;1.90;99.90;;;;;;5055379;28;20052;-74
2022/05/01 05:30:24;;;;;;;16.40;12.43;;;2.00;99.90;;;;;;5066703;28;20048;-75
2022/05/01 05:32:50;;;;;;;14.82;11.77;;;2.10;99.90;;;;;;5068981;28;20497;-72
2022/05/01 05:35:16;;;;;;;14.85;11.00;;;2.10;99.90;;;;;;5071195;28;20459;-74
2022/05/01 05:37:41;;;;;;;15.55;11.85;;;2.20;99.90;;;;;;5060837;28;20373;-71
2022/05/01 05:40:08;;;;;;;12.25;9.45;;;2.30;99.90;;;;;;5070323;28;20419;-73
2022/05/01 05:42:33;;;;;;;12.45;10.25;;;2.40;99.90;;;;;;5071447;28;20178;-73
2022/05/01 05:45:00;;;;;;;12.75;10.25;;;2.50;99.90;;;;;;5071395;28;20496;-75
2022/05/01 05:47:25;;;;;;;15.55;11.82;;;2.60;99.90;;;;;;5063387;28;20048;-71
2022/05/01 05:49:51;;;;;;;12.82;10.73;;;2.70;99.90;;;;;;5072147;28;20078;-72
2022/05/01 05:52:17;;;;;;;13.52;11.25;;;2.90;99.90;;;;;;5071534;28;20040;-72
2022/05/01 05:54:43;;;;;;;13.20;11.15;;;3.00;99.90;;;;;;5071541;28;20040;-73
2022/05/01 05:57:09;;;;;;;16.35;13.05;;;3.10;99.90;;;;;;5064209;28;20048;-75
2022/05/01 05:59:35;;;;;;;16.63;11.85;;;3.20;99.90;;;;;;5070574;28;20041;-74
2022/05/01 06:02:03;;;;;;;14.20;11.73;;;3.40;99.90;;;;;;5061628;28;20048;-75
2022/05/01 06:04:29;;;;;;;14.85;11.68;;;3.50;99.90;;;;;;5068557;28;20055;-74
2022/05/01 06:06:54;;;;;;;16.58;12.77;;;3.60;99.90;;;;;;5071680;28;20372;-74
2022/05/01 06:09:20;;;;;;;14.82;11.48;;;3.80;99.90;;;;;;5059954;28;20056;-72
2022/05/01 06:11:46;;;;;;;19.35;13.10;;;3.90;99.90;;;;;;5067015;28;20475;-74
2022/05/01 06:14:11;;;;;;;19.63;13.45;;;4.10;99.90;;;;;;5071614;28;20050;-74
2022/05/01 06:16:38;;;;;;;23.38;16.20;;;4.70;99.90;;;;;;5064561;28;20388;-73
2022/05/01 06:19:04;;;;;;;19.02;15.07;;;4.40;99.90;;;;;;5064270;28;20117;-72
2022/05/01 06:21:30;;;;;;;19.80;15.23;;;4.80;99.90;;;;;;5063721;28;20080;-68
2022/05/01 06:23:55;;;;;;;21.15;14.57;;;5.40;99.90;;;;;;5070585;28;20435;-75
2022/05/01 06:26:21;;;;;;;20.27;15.60;;;4.90;99.90;;;;;;5071472;28;20048;-70
2022/05/01 06:28:47;;;;;;;21.58;15.32;;;5.00;99.90;;;;;;5062242;28;20684;-70
2022/05/01 06:31:15;;;;;;;18.75;14.43;;;5.30;99.90;;;;;;5067504;28;20064;-72
2022/05/01 06:33:42;;;;;;;19.40;14.18;;;5.40;99.90;;;;;;5069981;28;20453;-69
2022/05/01 06:36:08;;;;;;;22.23;15.35;;;5.60;99.90;;;;;;5061358;28;20197;-70
2022/05/01 06:38:35;;;;;;;19.42;14.07;;;5.80;99.90;;;;;;5070555;28;20040;-71
2022/05/01 06:41:03;;;;;;;19.30;13.30;;;6.00;99.90;;;;;;5062731;28;20053;-70
2022/05/01 06:43:29;;;;;;;15.75;12.40;;;6.10;99.90;;;;;;5059727;28;20053;-70
2022/05/01 06:45:54;;;;;;;19.00;12.48;;;6.30;99.90;;;;;;5061376;28;20479;-72
2022/05/01 06:48:20;;;;;;;16.25;12.45;;;6.50;99.90;;;;;;5061064;28;20052;-69
2022/05/01 06:50:46;;;;;;;15.80;12.05;;;6.60;99.90;;;;;;5071273;28;20028;-70
2022/05/01 06:53:12;;;;;;;15.50;11.80;;;6.80;99.90;;;;;;5070617;28;20468;-70
2022/05/01 06:55:38;;;;;;;15.30;11.63;;;7.50;99.90;;;;;;5061456;28;20055;-71
2022/05/01 06:58:04;;;;;;;15.25;10.55;;;7.10;99.90;;;;;;5067399;28;20530;-71
2022/05/01 07:00:30;;;;;;;19.50;11.32;;;7.30;99.90;;;;;;5069549;28;20521;-73
2022/05/01 07:02:56;;;;;;;13.60;10.30;;;7.50;99.90;;;;;;5069579;28;20045;-71
2022/05/01 07:05:22;;;;;;;14.50;10.88;;;7.60;99.90;;;;;;5069962;28;20492;-70
2022/05/01 07:07:50;;;;;;;18.45;10.63;;;7.80;99.90;;;;;;5070306;28;20094;-71
2022/05/01 07:10:17;;;;;;;13.93;10.20;;;8.00;99.90;;;;;;5062821;28;20056;-71
2022/05/01 07:12:43;;;;;;;13.70;9.90;;;8.20;99.90;;;;;;5069852;28;20040;-71
2022/05/01 07:15:10;;;;;;;14.23;10.07;;;8.40;99.90;;;;;;5070188;28;20135;-71
2022/05/01 07:17:36;;;;;;;13.48;9.52;;;8.50;99.90;;;;;;5062405;28;20072;-70
2022/05/01 07:20:02;;;;;;;12.30;8.57;;;8.60;99.90;;;;;;5068845;28;20446;-71
2022/05/01 07:22:28;;;;;;;14.30;9.23;;;9.00;99.90;;;;;;5070375;28;20047;-71
2022/05/01 07:24:54;;;;;;;12.45;7.47;;;9.10;99.90;;;;;;5060752;28;20048;-71
2022/05/01 07:27:20;;;;;;;9.77;7.03;;;9.00;99.90;;;;;;5068370;28;20067;-71
2022/05/01 07:29:46;;;;;;;11.23;7.65;;;9.20;99.90;;;;;;5060579;28;20119;-72
2022/05/01 07:32:12;;;;;;;13.63;7.95;;;9.40;99.90;;;;;;5069012;28;20068;-71
2022/05/01 07:34:37;;;;;;;10.77;7.57;;;10.00;99.90;;;;;;5063258;28;20072;-71
2022/05/01 07:37:04;;;;;;;12.85;7.43;;;9.80;99.90;;;;;;5068857;28;20134;-71
2022/05/01 07:39:30;;;;;;;9.45;7.18;;;10.40;99.90;;;;;;5069504;28;20056;-71
2022/05/01 07:41:56;;;;;;;8.38;5.90;;;10.20;99.90;;;;;;5061652;28;20037;-73
2022/05/01 07:44:22;;;;;;;8.48;5.68;;;10.40;99.90;;;;;;5065680;28;20052;-69
2022/05/01 07:46:48;;;;;;;9.70;6.28;;;10.40;99.90;;;;;;5061911;28;20063;-72
2022/05/01 07:49:14;;;;;;;10.68;6.65;;;10.60;99.90;;;;;;5068743;28;20056;-72
2022/05/01 07:51:40;;;;;;;10.43;6.35;;;10.90;99.90;;;;;;5065467;28;20033;-71
2022/05/01 07:54:06;;;;;;;13.98;7.30;;;11.30;99.90;;;;;;5061346;28;20052;-72
2022/05/01 07:56:32;;;;;;;11.18;5.68;;;11.50;99.90;;;;;;5069297;28;20079;-72
2022/05/01 07:58:58;;;;;;;8.90;5.57;;;11.70;99.90;;;;;;5062007;28;20086;-72
2022/05/01 08:01:24;;;;;;;9.02;5.35;;;12.00;99.90;;;;;;5061949;28;20487;-72
2022/05/01 08:06:52;;;;;;;7.03;4.80;;;12.60;99.90;;;;;;5022205;28;20485;-73
2022/05/01 08:09:18;;;;;;;7.45;4.32;;;12.60;99.90;;;;;;5010757;28;20053;-73
2022/05/01 08:11:44;;;;;;;6.30;4.18;;;12.90;99.90;;;;;;5027433;28;20057;-74
2022/05/01 08:14:12;;;;;;;10.07;5.03;;;12.80;99.90;;;;;;5027046;28;20501;-76
2022/05/01 08:16:39;;;;;;;7.70;5.22;;;12.90;99.90;;;;;;5027262;28;20041;-72
2022/05/01 08:21:49;;;;;;;6.13;4.68;;;13.10;99.90;;;;;;5026955;28;20478;-73
2022/05/01 08:24:15;;;;;;;7.03;5.20;;;13.10;99.90;;;;;;5026404;28;20053;-73
2022/05/01 08:26:46;;;;;;;7.32;5.03;;;13.20;99.90;;;;;;5027218;28;20042;-76
2022/05/01 08:29:12;;;;;;;6.30;4.68;;;13.10;99.90;;;;;;5027072;28;20463;-73
2022/05/01 08:31:39;;;;;;;7.20;4.68;;;13.00;99.90;;;;;;5027136;28;20045;-71
2022/05/01 08:34:04;;;;;;;9.15;5.00;;;13.10;99.90;;;;;;5026811;28;20061;-74
2022/05/01 08:36:31;;;;;;;9.30;5.07;;;13.10;99.90;;;;;;5010168;28;20598;-73
2022/05/01 08:38:56;;;;;;;7.40;5.03;;;13.40;99.90;;;;;;5027086;28;20048;-74
2022/05/01 08:41:24;;;;;;;7.65;4.57;;;13.50;99.90;;;;;;5051193;28;20048;-74
2022/05/01 08:43:53;;;;;;;8.65;4.50;;;13.60;99.90;;;;;;5062044;28;20424;-74
2022/05/01 08:46:30;;;;;;;6.78;4.30;;;13.50;99.90;;;;;;5059923;28;20488;-73
2022/05/01 08:49:03;;;;;;;6.20;4.30;;;13.60;99.90;;;;;;5053409;28;20094;-72
2022/05/01 08:51:32;;;;;;;6.68;4.30;;;13.50;99.90;;;;;;5059847;28;20041;-71
2022/05/01 08:54:00;;;;;;;7.32;4.57;;;13.50;99.90;;;;;;5068326;28;20069;-72
2022/05/01 08:56:26;;;;;;;9.80;4.18;;;13.50;99.90;;;;;;5068996;28;20083;-74
2022/05/01 08:58:53;;;;;;;7.43;4.25;;;13.30;99.90;;;;;;5050103;28;20041;-74
2022/05/01 09:01:19;;;;;;;8.32;4.65;;;13.50;99.90;;;;;;5058225;28;20051;-74
2022/05/01 09:03:45;;;;;;;7.93;4.70;;;13.40;99.90;;;;;;5061903;28;20052;-73
2022/05/01 09:06:12;;;;;;;6.18;4.25;;;13.40;99.90;;;;;;5063015;28;20045;-74
2022/05/01 09:08:39;;;;;;;9.25;4.57;;;13.60;99.90;;;;;;5069957;28;20135;-73
2022/05/01 09:13:50;;;;;;;9.80;4.70;;;13.60;99.90;;;;;;5068761;28;20450;-73
2022/05/01 09:16:15;;;;;;;7.70;4.30;;;13.60;99.90;;;;;;5067278;28;20052;-74
2022/05/01 09:18:46;;;;;;;6.93;5.07;;;14.00;99.90;;;;;;5058792;28;20235;-75
2022/05/01 09:21:13;;;;;;;7.57;4.00;;;14.10;99.90;;;;;;5068216;28;20101;-74
2022/05/01 09:23:45;;;;;;;8.85;4.38;;;15.00;99.90;;;;;;5065272;28;20045;-73
2022/05/01 09:26:15;;;;;;;8.23;4.38;;;14.30;99.90;;;;;;5057037;28;20102;-72
2022/05/01 09:28:48;;;;;;;6.22;4.15;;;14.40;99.90;;;;;;5066569;28;20480;-70
2022/05/01 09:31:15;;;;;;;10.32;4.28;;;14.40;99.90;;;;;;5067782;28;20078;-73
2022/05/01 09:33:40;;;;;;;8.27;4.90;;;14.30;99.90;;;;;;5069660;28;20052;-74
2022/05/01 09:36:08;;;;;;;9.15;4.55;;;14.40;99.90;;;;;;5070643;28;20070;-75
2022/05/01 09:38:34;;;;;;;8.52;4.97;;;14.50;99.90;;;;;;5072231;28;20048;-74
2022/05/01 09:41:02;;;;;;;8.05;4.50;;;14.70;99.90;;;;;;5070923;28;20115;-76
2022/05/01 09:43:44;;;;;;;8.65;4.55;;;14.70;99.90;;;;;;5062390;28;20056;-79
2022/05/01 09:46:16;;;;;;;11.35;4.88;;;14.60;99.90;;;;;;5062321;28;20052;-74
2022/05/01 09:48:55;;;;;;;8.20;4.68;;;14.60;99.90;;;;;;5068565;28;20041;-75
2022/05/01 09:51:21;;;;;;;6.60;4.30;;;14.50;99.90;;;;;;5068820;28;20048;-76
2022/05/01 09:53:46;;;;;;;7.43;4.35;;;14.50;99.90;;;;;;5065704;28;20476;-76
2022/05/01 09:56:12;;;;;;;8.57;4.00;;;14.40;99.90;;;;;;5059757;28;20095;-73
2022/05/01 09:58:40;;;;;;;7.82;4.45;;;14.60;99.90;;;;;;5062418;28;20067;-77
2022/05/01 10:01:14;;;;;;;8.23;4.50;;;14.70;99.90;;;;;;5068207;28;20102;-77
2022/05/01 10:03:42;;;;;;;7.30;4.68;;;14.70;99.90;;;;;;5055685;28;20373;-80
2022/05/01 10:06:10;;;;;;;10.98;5.15;;;14.70;99.90;;;;;;5063085;28;20036;-74
2022/05/01 10:08:38;;;;;;;7.15;4.40;;;14.50;99.90;;;;;;5071025;28;20052;-77
2022/05/01 10:11:05;;;;;;;9.85;4.35;;;14.60;99.90;;;;;;5064263;28;20037;-77
2022/05/01 10:13:32;;;;;;;7.25;4.40;;;14.70;99.90;;;;;;5069707;28;20057;-77
2022/05/01 10:15:59;;;;;;;7.18;4.28;;;15.20;99.90;;;;;;5071465;28;20035;-78
2022/05/01 10:18:25;;;;;;;6.70;4.97;;;15.10;99.90;;;;;;5058726;28;20044;-79
2022/05/01 10:20:52;;;;;;;8.18;4.78;;;14.80;99.90;;;;;;5071303;28;20104;-77
2022/05/01 10:23:17;;;;;;;8.70;4.68;;;14.80;99.90;;;;;;5071087;28;20063;-73
2022/05/01 10:26:10;;;;;;;8.60;4.50;;;14.70;99.90;;;;;;5070326;28;20036;-73
2022/05/01 10:28:51;;;;;;;5.57;3.95;;;14.80;99.90;;;;;;5063061;28;20071;-74
2022/05/01 10:35:13;;;;;;;6.88;4.20;;;15.00;99.90;;;;;;5062286;28;20063;-73
2022/05/01 10:37:57;;;;;;;6.05;4.28;;;15.10;99.90;;;;;;5062917;28;20036;-73
2022/05/01 10:40:23;;;;;;;7.10;4.47;;;15.20;99.90;;;;;;5069748;28;20044;-73
2022/05/01 10:42:50;;;;;;;7.22;4.35;;;15.10;99.90;;;;;;5070467;28;20127;-73
2022/05/01 10:45:21;;;;;;;7.40;4.15;;;15.10;99.90;;;;;;5072040;28;20052;-75
2022/05/01 10:47:54;;;;;;;6.22;3.97;;;15.00;99.90;;;;;;5071414;28;20395;-73
2022/05/01 10:50:23;;;;;;;8.95;4.38;;;15.30;99.90;;;;;;5071752;28;20052;-73
2022/05/01 10:53:03;;;;;;;7.18;4.10;;;15.30;99.90;;;;;;5070450;28;20040;-73
2022/05/01 10:55:52;;;;;;;7.47;4.05;;;15.50;99.90;;;;;;5071849;28;20044;-74
2022/05/01 10:58:26;;;;;;;5.95;3.80;;;15.70;99.90;;;;;;5071515;28;20090;-74
2022/05/01 11:00:53;;;;;;;7.07;3.95;;;15.90;99.90;;;;;;5071752;28;20399;-72
2022/05/01 11:03:32;;;;;;;6.10;4.07;;;16.10;99.90;;;;;;5071679;28;20430;-74
2022/05/01 11:06:04;;;;;;;7.60;4.13;;;16.20;99.90;;;;;;5070515;28;20123;-76
2022/05/01 11:08:32;;;;;;;9.30;4.32;;;16.20;98.60;;;;;;5070831;28;20037;-74
2022/05/01 11:10:59;;;;;;;8.43;4.00;;;16.20;99.90;;;;;;5070253;28;20052;-77
2022/05/01 11:13:36;;;;;;;8.68;4.57;;;16.10;99.90;;;;;;5053301;28;20055;-77
2022/05/01 11:16:04;;;;;;;5.72;3.90;;;16.10;98.90;;;;;;5070234;28;20091;-78
2022/05/01 11:18:52;;;;;;;5.05;3.30;;;16.20;98.70;;;;;;5071418;28;20123;-76
2022/05/01 11:21:23;;;;;;;5.85;3.58;;;16.30;98.50;;;;;;5069152;28;20696;-77
2022/05/01 11:24:01;;;;;;;9.15;3.65;;;16.20;98.20;;;;;;5061103;28;20115;-82
2022/05/01 11:26:27;;;;;;;5.85;3.35;;;16.50;99.20;;;;;;5065441;28;20048;-77
2022/05/01 11:29:09;;;;;;;5.20;3.50;;;16.40;98.80;;;;;;5070954;28;20048;-76
2022/05/01 11:31:37;;;;;;;6.00;3.22;;;16.50;98.30;;;;;;5069643;28;20044;-75
2022/05/01 11:34:24;;;;;;;6.75;3.03;;;16.30;97.10;;;;;;5033012;28;20056;-75
2022/05/01 11:37:03;;;;;;;10.82;3.70;;;16.30;97.50;;;;;;5041345;28;20122;-73
2022/05/01 11:39:46;;;;;;;5.65;3.22;;;16.30;98.70;;;;;;5059527;28;20049;-76
2022/05/01 11:42:24;;;;;;;6.97;3.58;;;16.30;97.70;;;;;;5068634;28;20495;-78
2022/05/01 11:45:00;;;;;;;6.70;3.05;;;16.20;97.10;;;;;;5065324;28;20051;-73
2022/05/01 11:47:27;;;;;;;6.68;3.22;;;16.20;98.30;;;;;;5070619;28;20059;-74
2022/05/01 11:49:53;;;;;;;6.80;3.60;;;16.10;97.90;;;;;;5069367;28;20052;-80
2022/05/01 11:52:20;;;;;;;6.88;3.70;;;16.40;97.60;;;;;;5056910;28;20044;-77
2022/05/01 11:54:59;;;;;;;6.03;3.75;;;16.40;96.50;;;;;;5068054;28;20054;-76
2022/05/01 12:03:02;;;;;;;7.07;3.35;;;17.20;96.00;;;;;;5036142;28;20437;-73
2022/05/01 12:05:48;;;;;;;5.70;3.03;;;17.50;95.10;;;;;;5057003;28;20180;-74
2022/05/01 12:08:14;;;;;;;5.72;3.50;;;17.90;95.50;;;;;;5057789;28;20045;-72
2022/05/01 12:10:41;;;;;;;7.28;3.70;;;18.00;96.10;;;;;;5067457;28;20059;-75
2022/05/01 12:13:27;;;;;;;5.80;3.53;;;17.90;95.30;;;;;;5067854;28;20571;-73
2022/05/01 12:15:53;;;;;;;6.45;3.60;;;18.10;95.70;;;;;;5061703;28;20087;-77
2022/05/01 12:18:19;;;;;;;5.60;3.80;;;18.00;95.20;;;;;;5066775;28;20454;-77
2022/05/01 12:20:46;;;;;;;6.43;2.75;;;18.00;94.50;;;;;;5070234;28;20037;-75
2022/05/01 12:23:19;;;;;;;4.55;2.95;;;18.30;94.80;;;;;;5070198;28;20048;-77
2022/05/01 12:25:49;;;;;;;4.85;2.92;;;18.60;93.80;;;;;;5070450;28;20048;-78
2022/05/01 12:28:17;;;;;;;5.72;3.10;;;18.90;91.50;;;;;;5068779;28;20071;-77
2022/05/01 12:30:42;;;;;;;4.45;2.88;;;18.80;91.50;;;;;;5069266;28;20050;-78
2022/05/01 12:33:21;;;;;;;4.90;2.50;;;18.90;91.70;;;;;;5070158;28;20123;-74
2022/05/01 12:36:22;;;;;;;5.75;2.92;;;19.00;88.80;;;;;;5068371;28;20083;-76
2022/05/01 12:39:00;;;;;;;5.57;3.03;;;18.50;89.60;;;;;;5070157;28;20039;-73
2022/05/01 12:44:10;;;;;;;5.43;2.80;;;17.90;90.20;;;;;;5069699;28;20139;-75
2022/05/01 12:46:36;;;;;;;6.15;3.08;;;18.30;91.40;;;;;;5070306;28;20178;-76
2022/05/01 12:49:02;;;;;;;8.77;3.13;;;18.30;91.00;;;;;;5070155;28;20064;-75
2022/05/01 12:51:41;;;;;;;6.65;3.03;;;18.50;91.60;;;;;;5069947;28;20098;-75
2022/05/01 12:54:16;;;;;;;4.65;2.90;;;18.30;91.70;;;;;;5069753;28;20481;-75
2022/05/01 12:56:44;;;;;;;4.97;3.28;;;18.30;91.20;;;;;;5069977;28;20519;-74
2022/05/01 12:59:23;;;;;;;8.70;3.20;;;18.30;90.20;;;;;;5069809;28;20036;-73
2022/05/01 13:01:49;;;;;;;6.85;3.80;;;17.90;90.40;;;;;;5070226;28;20495;-75
2022/05/01 13:04:22;;;;;;;6.18;3.33;;;18.00;91.10;;;;;;5069976;28;20043;-73
2022/05/01 13:06:48;;;;;;;5.60;2.72;;;18.10;91.40;;;;;;5070073;28;20498;-74
2022/05/01 13:09:16;;;;;;;4.47;2.97;;;18.10;91.20;;;;;;5068870;28;20055;-75
2022/05/01 13:11:58;;;;;;;6.07;3.03;;;18.00;91.90;;;;;;5072732;28;20057;-73
2022/05/01 13:14:32;;;;;;;6.38;3.30;;;18.10;90.40;;;;;;5072091;28;20036;-73
2022/05/01 13:17:09;;;;;;;;;;;18.00;90.20;;;;;;5056383;28;20104;-73
2022/05/01 13:19:34;;;;;;;4.82;2.85;;;17.80;86.00;;;;;;5073465;28;19931;-72